Time;durP1;ratioP1;P1;durP2;ratioP2;P2;SDS_P1;SDS_P2;PMS_P1;PMS_P2;Temp;Humidity;BMP_temperature;BMP_pressure;BME280_temperature;BME280_humidity;BME280_pressure;Samples;Min_cycle;Max_cycle;Signal;HPM_P1;HPM_P2
2021/05/02 00:01:10;;;;;;;45.45;28.40;;;9.30;84.30;;;;;;5054052;28;20029;-70
2021/05/02 00:03:36;;;;;;;47.58;30.73;;;9.30;84.30;;;;;;5054052;28;20063;-71
2021/05/02 00:06:03;;;;;;;50.45;31.98;;;9.10;84.90;;;;;;5052595;28;20035;-70
2021/05/02 00:08:29;;;;;;;56.22;34.03;;;9.00;85.60;;;;;;5041006;28;20029;-71
2021/05/02 00:10:55;;;;;;;62.25;37.63;;;8.80;87.30;;;;;;5034178;28;20530;-71
2021/05/02 00:13:21;;;;;;;68.18;38.15;;;8.80;88.80;;;;;;5033875;28;20112;-71
2021/05/02 00:15:46;;;;;;;66.40;37.20;;;8.90;89.50;;;;;;5032587;28;20075;-71
2021/05/02 00:18:12;;;;;;;71.13;40.97;;;8.90;89.70;;;;;;5033880;28;20572;-71
2021/05/02 00:20:38;;;;;;;65.30;38.00;;;8.80;89.60;;;;;;5033670;28;20422;-73
2021/05/02 00:23:05;;;;;;;73.30;43.13;;;8.80;89.50;;;;;;5032445;28;20079;-71
2021/05/02 00:25:33;;;;;;;65.55;39.97;;;8.80;90.10;;;;;;5033634;28;20506;-72
2021/05/02 00:27:59;;;;;;;59.00;37.20;;;8.80;89.60;;;;;;5048574;28;20548;-71
2021/05/02 00:30:27;;;;;;;76.28;41.97;;;8.60;89.30;;;;;;5032542;28;20032;-71
2021/05/02 00:32:54;;;;;;;76.43;43.13;;;8.70;90.50;;;;;;5033475;28;20068;-71
2021/05/02 00:35:22;;;;;;;84.47;43.92;;;8.60;90.50;;;;;;5034458;28;20029;-71
2021/05/02 00:37:48;;;;;;;71.80;41.10;;;8.60;90.70;;;;;;5053090;28;20021;-72
2021/05/02 00:40:20;;;;;;;74.18;40.90;;;8.60;90.80;;;;;;5051799;28;20029;-71
2021/05/02 00:42:52;;;;;;;70.85;41.08;;;8.60;90.40;;;;;;5053283;28;20108;-71
2021/05/02 00:45:39;;;;;;;71.20;40.70;;;8.60;90.60;;;;;;5053313;28;20021;-71
2021/05/02 00:48:09;;;;;;;54.92;35.90;;;8.60;90.50;;;;;;5053017;28;20036;-71
2021/05/02 00:50:50;;;;;;;57.90;35.85;;;8.70;89.30;;;;;;5053122;28;20063;-71
2021/05/02 00:53:37;;;;;;;58.47;35.97;;;8.70;89.20;;;;;;5053176;28;20028;-71
2021/05/02 00:56:15;;;;;;;64.32;37.80;;;8.60;89.40;;;;;;5052879;28;20033;-70
2021/05/02 00:59:13;;;;;;;51.25;33.92;;;8.60;89.40;;;;;;5053089;28;20491;-71
2021/05/02 01:01:42;;;;;;;62.97;37.78;;;8.60;88.30;;;;;;5052984;28;20051;-72
2021/05/02 01:04:10;;;;;;;61.22;37.90;;;8.60;89.20;;;;;;5051582;28;20021;-71
2021/05/02 01:06:42;;;;;;;63.58;38.17;;;8.50;89.20;;;;;;5051211;28;20033;-71
2021/05/02 01:09:09;;;;;;;66.90;40.55;;;8.50;89.60;;;;;;5034619;28;20021;-71
2021/05/02 01:11:41;;;;;;;61.45;38.80;;;8.60;90.10;;;;;;5032452;28;20107;-71
2021/05/02 01:14:11;;;;;;;64.88;39.08;;;8.50;89.30;;;;;;5032778;28;20091;-71
2021/05/02 01:16:41;;;;;;;69.10;40.75;;;8.50;89.30;;;;;;5032579;28;20158;-71
2021/05/02 01:19:12;;;;;;;67.38;40.80;;;8.40;89.30;;;;;;5031736;28;20049;-71
2021/05/02 01:21:39;;;;;;;66.78;40.25;;;8.50;89.40;;;;;;5032508;28;20033;-71
2021/05/02 01:24:08;;;;;;;74.45;42.53;;;8.40;89.40;;;;;;5032347;28;20527;-70
2021/05/02 01:26:43;;;;;;;63.00;39.05;;;8.40;90.20;;;;;;5031015;28;20516;-71
2021/05/02 01:29:09;;;;;;;69.43;42.35;;;8.40;89.90;;;;;;5032515;28;20438;-71
2021/05/02 01:31:35;;;;;;;64.88;40.03;;;8.40;89.90;;;;;;5032011;28;20040;-71
2021/05/02 01:34:00;;;;;;;67.78;39.63;;;8.40;89.80;;;;;;5032405;28;20388;-71
2021/05/02 01:36:27;;;;;;;73.78;43.78;;;8.50;89.70;;;;;;5057717;28;20029;-71
2021/05/02 01:38:54;;;;;;;69.65;42.47;;;8.50;90.20;;;;;;5052077;28;20036;-71
2021/05/02 01:41:20;;;;;;;87.10;48.70;;;8.50;89.40;;;;;;5051915;28;20074;-72
2021/05/02 01:43:46;;;;;;;86.80;47.38;;;8.40;90.10;;;;;;5052123;28;20024;-71
2021/05/02 01:46:17;;;;;;;88.80;49.22;;;8.40;90.60;;;;;;5051781;28;20021;-72
2021/05/02 01:48:44;;;;;;;108.82;53.40;;;8.30;91.10;;;;;;5050868;28;20067;-71
2021/05/02 01:51:12;;;;;;;107.03;52.28;;;8.30;91.50;;;;;;5050273;28;20056;-71
2021/05/02 01:53:38;;;;;;;110.10;54.03;;;8.30;91.90;;;;;;5051859;28;20500;-70
2021/05/02 01:56:05;;;;;;;121.63;55.45;;;8.30;91.70;;;;;;5051714;28;20368;-71
2021/05/02 01:58:32;;;;;;;129.10;56.72;;;8.40;92.20;;;;;;5051947;28;20036;-71
2021/05/02 02:01:07;;;;;;;129.40;58.70;;;8.40;92.20;;;;;;5050359;28;20074;-71
2021/05/02 02:03:34;;;;;;;123.55;55.00;;;8.40;92.30;;;;;;5051699;28;20021;-71
2021/05/02 02:06:01;;;;;;;126.63;57.83;;;8.40;92.20;;;;;;5051743;28;20169;-71
2021/05/02 02:08:27;;;;;;;135.65;57.17;;;8.30;91.90;;;;;;5039425;28;20159;-70
2021/05/02 02:10:53;;;;;;;200.50;68.05;;;8.30;92.30;;;;;;5039437;28;20041;-71
2021/05/02 02:13:19;;;;;;;134.25;59.70;;;8.30;92.50;;;;;;5049038;28;20051;-70
2021/05/02 02:15:46;;;;;;;114.78;55.83;;;8.30;92.50;;;;;;5049433;28;20022;-70
2021/05/02 02:18:13;;;;;;;129.23;56.78;;;8.30;92.40;;;;;;5040818;28;20109;-71
2021/05/02 02:20:45;;;;;;;129.77;57.38;;;8.30;92.50;;;;;;5030657;28;20037;-71
2021/05/02 02:23:23;;;;;;;160.77;62.58;;;8.20;92.50;;;;;;5030663;28;20112;-71
2021/05/02 02:25:50;;;;;;;165.00;64.60;;;8.30;92.60;;;;;;5031836;28;20021;-72
2021/05/02 02:28:17;;;;;;;180.48;63.28;;;8.30;92.80;;;;;;5031383;28;20484;-71
2021/05/02 02:30:56;;;;;;;143.35;61.25;;;8.30;93.00;;;;;;5031256;28;20030;-71
2021/05/02 02:33:29;;;;;;;133.75;57.67;;;8.30;93.20;;;;;;5031716;28;20030;-72
2021/05/02 02:35:55;;;;;;;114.70;54.00;;;8.20;93.00;;;;;;5037362;28;20070;-71
2021/05/02 02:38:23;;;;;;;104.28;51.40;;;8.20;93.20;;;;;;5049933;28;20491;-72
2021/05/02 02:40:51;;;;;;;216.90;86.65;;;8.10;93.10;;;;;;5051464;28;20049;-71
2021/05/02 02:43:26;;;;;;;314.80;122.38;;;8.10;93.40;;;;;;5051596;28;20032;-72
2021/05/02 02:45:57;;;;;;;137.73;59.40;;;8.00;93.50;;;;;;5050043;28;20028;-72
2021/05/02 02:48:26;;;;;;;151.98;60.65;;;8.10;93.60;;;;;;5051314;28;20029;-71
2021/05/02 02:50:56;;;;;;;100.32;47.97;;;8.00;93.60;;;;;;5050198;28;20506;-71
2021/05/02 02:53:23;;;;;;;92.68;44.97;;;7.90;93.50;;;;;;5054443;28;20029;-71
2021/05/02 02:56:17;;;;;;;67.78;35.28;;;7.80;93.20;;;;;;5055155;28;20052;-71
2021/05/02 02:58:58;;;;;;;54.95;30.55;;;7.70;93.00;;;;;;5043090;28;20033;-71
2021/05/02 03:01:27;;;;;;;56.33;31.08;;;7.50;92.40;;;;;;5053975;28;20052;-71
2021/05/02 03:03:55;;;;;;;44.90;24.90;;;7.30;92.60;;;;;;5054510;28;20029;-71
2021/05/02 03:06:24;;;;;;;51.67;27.88;;;7.10;91.60;;;;;;5053807;28;20037;-71
2021/05/02 03:08:53;;;;;;;68.25;33.78;;;7.10;92.80;;;;;;5038106;28;20064;-71
2021/05/02 03:11:19;;;;;;;74.63;33.92;;;7.10;93.40;;;;;;5035029;28;20048;-72
2021/05/02 03:13:45;;;;;;;66.80;32.28;;;7.10;93.70;;;;;;5033958;28;20026;-71
2021/05/02 03:16:12;;;;;;;76.03;34.40;;;7.00;93.80;;;;;;5033838;28;20388;-71
2021/05/02 03:19:05;;;;;;;81.47;34.90;;;7.10;94.00;;;;;;5035100;28;20017;-71
2021/05/02 03:21:34;;;;;;;91.63;35.42;;;7.20;94.20;;;;;;5050396;28;20024;-70
2021/05/02 03:24:03;;;;;;;71.30;32.55;;;7.20;94.20;;;;;;5033482;28;20048;-70
2021/05/02 03:26:30;;;;;;;73.25;33.00;;;7.30;94.30;;;;;;5033088;28;20029;-71
2021/05/02 03:29:01;;;;;;;70.32;32.15;;;7.30;94.30;;;;;;5034695;28;20029;-71
2021/05/02 03:31:34;;;;;;;68.10;30.77;;;7.30;94.20;;;;;;5034331;28;20131;-71
2021/05/02 03:34:05;;;;;;;66.78;29.88;;;7.30;94.10;;;;;;5049931;28;20404;-71
2021/05/02 03:36:35;;;;;;;;;;;7.20;94.10;;;;;;5045293;28;20103;-71
2021/05/02 03:39:06;;;;;;;50.63;27.15;;;7.20;94.10;;;;;;5069749;28;19916;-71
2021/05/02 03:41:36;;;;;;;79.18;31.08;;;7.20;94.20;;;;;;5054235;28;20024;-71
2021/05/02 03:44:02;;;;;;;71.93;31.58;;;7.20;94.10;;;;;;5054363;28;20025;-71
2021/05/02 03:46:28;;;;;;;96.05;35.60;;;7.20;94.20;;;;;;5054054;28;20032;-71
2021/05/02 03:49:04;;;;;;;73.45;33.72;;;7.20;94.20;;;;;;5054365;28;20021;-71
2021/05/02 03:51:32;;;;;;;91.63;35.53;;;7.30;94.30;;;;;;5053987;28;20044;-71
2021/05/02 03:53:58;;;;;;;92.90;35.85;;;7.20;94.30;;;;;;5054188;28;20025;-71
2021/05/02 03:56:31;;;;;;;98.80;37.55;;;7.30;94.30;;;;;;5053911;28;20017;-71
2021/05/02 03:59:11;;;;;;;97.32;36.78;;;7.30;94.30;;;;;;5052803;28;20029;-71
2021/05/02 04:01:54;;;;;;;94.97;36.53;;;7.30;94.30;;;;;;5054109;28;20382;-71
2021/05/02 04:04:27;;;;;;;103.03;40.15;;;7.30;94.20;;;;;;5052536;28;20021;-70
2021/05/02 04:07:07;;;;;;;117.13;42.90;;;7.30;94.10;;;;;;5053796;28;20033;-71
2021/05/02 04:09:33;;;;;;;122.28;41.28;;;7.30;94.10;;;;;;5014307;28;20026;-71
2021/05/02 04:11:59;;;;;;;131.63;45.45;;;7.30;94.00;;;;;;5014034;28;20484;-71
2021/05/02 04:14:25;;;;;;;127.25;43.92;;;7.30;94.00;;;;;;5014385;28;20030;-72
2021/05/02 04:16:54;;;;;;;128.30;45.85;;;7.30;94.10;;;;;;5013888;28;20526;-72
2021/05/02 04:19:20;;;;;;;140.30;47.38;;;7.30;94.10;;;;;;5014512;28;20615;-72
2021/05/02 04:21:46;;;;;;;146.80;49.55;;;7.30;94.00;;;;;;5012567;28;20128;-72
2021/05/02 04:24:11;;;;;;;175.02;52.70;;;7.30;94.10;;;;;;5014069;28;20029;-71
2021/05/02 04:26:40;;;;;;;166.93;54.25;;;7.30;94.10;;;;;;5013767;28;20097;-71
2021/05/02 04:29:06;;;;;;;178.88;55.83;;;7.40;94.10;;;;;;5029076;28;20040;-71
2021/05/02 04:31:31;;;;;;;168.38;55.28;;;7.50;94.30;;;;;;5013383;28;20411;-71
2021/05/02 04:33:57;;;;;;;148.43;51.38;;;7.50;94.20;;;;;;5013777;28;20485;-71
2021/05/02 04:36:22;;;;;;;164.10;53.90;;;7.50;94.10;;;;;;5045783;28;20033;-71
2021/05/02 04:38:48;;;;;;;129.77;50.47;;;7.50;94.10;;;;;;5052044;28;20013;-71
2021/05/02 04:41:13;;;;;;;149.98;52.22;;;7.60;94.10;;;;;;5053290;28;20478;-71
2021/05/02 04:43:39;;;;;;;187.27;58.03;;;7.70;94.20;;;;;;5053217;28;20087;-71
2021/05/02 04:46:04;;;;;;;160.52;56.17;;;7.60;94.10;;;;;;5052818;28;20509;-71
2021/05/02 04:48:32;;;;;;;160.20;56.50;;;7.60;94.00;;;;;;5053146;28;20034;-70
2021/05/02 04:50:58;;;;;;;150.35;56.95;;;7.60;94.00;;;;;;5053060;28;20028;-71
2021/05/02 04:53:24;;;;;;;137.05;52.65;;;7.70;94.00;;;;;;5051727;28;20466;-71
2021/05/02 04:55:49;;;;;;;130.25;51.47;;;7.60;93.90;;;;;;5052988;28;20019;-71
2021/05/02 04:58:15;;;;;;;145.60;53.30;;;7.60;93.60;;;;;;5052722;28;20479;-70
2021/05/02 05:00:41;;;;;;;165.70;57.92;;;7.50;93.70;;;;;;5067213;28;20024;-71
2021/05/02 05:03:07;;;;;;;120.18;50.25;;;7.60;93.80;;;;;;5051860;28;20123;-71
2021/05/02 05:05:32;;;;;;;109.60;48.47;;;7.50;93.70;;;;;;5053132;28;20029;-70
2021/05/02 05:07:58;;;;;;;121.75;50.13;;;7.50;93.60;;;;;;5044163;28;20025;-70
2021/05/02 05:10:24;;;;;;;126.55;50.22;;;7.50;93.60;;;;;;5048304;28;20064;-70
2021/05/02 05:12:49;;;;;;;131.52;51.90;;;7.50;93.60;;;;;;5032767;28;20080;-71
2021/05/02 05:15:15;;;;;;;138.45;50.63;;;7.60;93.70;;;;;;5032201;28;20400;-70
2021/05/02 05:17:40;;;;;;;142.68;52.92;;;7.60;93.70;;;;;;5032288;28;20032;-71
2021/05/02 05:20:07;;;;;;;176.73;58.17;;;7.70;93.80;;;;;;5032608;28;20041;-71
2021/05/02 05:22:33;;;;;;;139.23;51.22;;;7.70;93.80;;;;;;5032521;28;20025;-70
2021/05/02 05:24:58;;;;;;;152.55;54.30;;;7.70;93.80;;;;;;5032531;28;20434;-71
2021/05/02 05:27:28;;;;;;;145.02;53.45;;;7.70;93.70;;;;;;5032268;28;20029;-70
2021/05/02 05:29:53;;;;;;;152.13;53.85;;;7.70;93.70;;;;;;5032262;28;20063;-70
2021/05/02 05:32:19;;;;;;;133.77;53.60;;;7.60;93.60;;;;;;5032106;28;20037;-70
2021/05/02 05:34:45;;;;;;;177.98;57.35;;;7.70;93.80;;;;;;5032296;28;20383;-70
2021/05/02 05:37:10;;;;;;;161.15;56.60;;;7.70;93.80;;;;;;5048243;28;20032;-71
2021/05/02 05:39:37;;;;;;;141.30;53.10;;;7.70;93.90;;;;;;5050812;28;20033;-71
2021/05/02 05:42:03;;;;;;;157.70;56.83;;;7.80;93.90;;;;;;5052062;28;20028;-70
2021/05/02 05:44:29;;;;;;;131.38;51.88;;;7.80;94.00;;;;;;5050731;28;20597;-70
2021/05/02 05:46:55;;;;;;;128.02;53.58;;;7.70;93.80;;;;;;5051687;28;20037;-70
2021/05/02 05:49:22;;;;;;;137.45;51.42;;;7.70;93.80;;;;;;5052042;28;20028;-70
2021/05/02 05:51:49;;;;;;;104.00;48.58;;;7.70;93.80;;;;;;5051833;28;20056;-70
2021/05/02 05:54:15;;;;;;;106.95;48.22;;;7.70;93.60;;;;;;5052101;28;20124;-70
2021/05/02 05:56:41;;;;;;;100.93;46.00;;;7.60;93.30;;;;;;5067220;28;20534;-71
2021/05/02 05:59:06;;;;;;;98.20;47.70;;;7.60;93.40;;;;;;5050446;28;20057;-70
2021/05/02 06:01:32;;;;;;;105.47;47.67;;;7.60;93.40;;;;;;5050408;28;20021;-71
2021/05/02 06:03:58;;;;;;;114.95;47.80;;;7.60;93.40;;;;;;5051714;28;20021;-71
2021/05/02 06:06:24;;;;;;;115.80;49.92;;;7.70;93.50;;;;;;5051614;28;20109;-70
2021/05/02 06:08:50;;;;;;;89.82;43.90;;;7.60;93.20;;;;;;5036164;28;20057;-71
2021/05/02 06:11:15;;;;;;;121.00;48.65;;;7.70;93.30;;;;;;5031763;28;20430;-70
2021/05/02 06:13:41;;;;;;;113.90;50.78;;;7.70;93.50;;;;;;5045679;28;20021;-70
2021/05/02 06:16:08;;;;;;;112.40;48.97;;;7.80;93.60;;;;;;5050474;28;20060;-69
2021/05/02 06:18:33;;;;;;;112.70;47.55;;;7.70;93.40;;;;;;5050415;28;20021;-70
2021/05/02 06:20:59;;;;;;;127.95;50.33;;;7.70;93.40;;;;;;5051611;28;20032;-70
2021/05/02 06:23:24;;;;;;;105.40;47.53;;;7.80;93.40;;;;;;5051658;28;20096;-71
2021/05/02 06:25:50;;;;;;;98.60;47.20;;;7.80;93.40;;;;;;5052482;28;20029;-70
2021/05/02 06:28:15;;;;;;;107.13;45.70;;;7.80;93.20;;;;;;5049635;28;20472;-69
2021/05/02 06:30:41;;;;;;;87.00;42.80;;;7.70;93.10;;;;;;5051275;28;20036;-71
2021/05/02 06:33:07;;;;;;;80.47;41.50;;;7.80;93.30;;;;;;5051581;28;20104;-71
2021/05/02 06:35:32;;;;;;;73.43;39.05;;;7.80;93.10;;;;;;5048766;28;20038;-71
2021/05/02 06:37:58;;;;;;;77.28;40.33;;;7.80;93.20;;;;;;5046645;28;20032;-71
2021/05/02 06:40:23;;;;;;;74.35;39.50;;;7.80;93.30;;;;;;5030220;28;20104;-71
2021/05/02 06:42:49;;;;;;;78.38;40.53;;;7.80;93.20;;;;;;5031469;28;20025;-72
2021/05/02 06:45:18;;;;;;;81.53;40.20;;;7.80;93.10;;;;;;5030476;28;20029;-69
2021/05/02 06:47:44;;;;;;;97.82;45.78;;;8.00;93.40;;;;;;5031198;28;20071;-69
2021/05/02 06:50:10;;;;;;;91.18;44.65;;;8.00;93.30;;;;;;5031608;28;20029;-69
2021/05/02 06:52:36;;;;;;;72.50;37.60;;;7.90;93.20;;;;;;5031603;28;20175;-70
2021/05/02 06:55:01;;;;;;;82.47;40.45;;;7.90;93.00;;;;;;5046736;28;20024;-69
2021/05/02 06:57:27;;;;;;;76.65;37.55;;;7.90;93.10;;;;;;5031294;28;20049;-69
2021/05/02 06:59:52;;;;;;;68.88;35.20;;;8.00;93.20;;;;;;5030690;28;20021;-70
2021/05/02 07:02:18;;;;;;;73.72;38.97;;;8.00;92.80;;;;;;5048505;28;20029;-71
2021/05/02 07:04:43;;;;;;;59.63;34.83;;;8.00;93.10;;;;;;5050646;28;20025;-70
2021/05/02 07:07:09;;;;;;;64.28;35.90;;;8.00;92.70;;;;;;5058087;28;20020;-69
2021/05/02 07:09:35;;;;;;;73.38;36.90;;;8.00;92.50;;;;;;5043590;28;20034;-69
2021/05/02 07:12:00;;;;;;;74.97;38.60;;;8.00;92.90;;;;;;5042793;28;20091;-69
2021/05/02 07:14:26;;;;;;;91.18;41.10;;;8.00;93.00;;;;;;5032839;28;20036;-70
2021/05/02 07:16:51;;;;;;;90.85;43.33;;;8.10;93.00;;;;;;5030099;28;20049;-69
2021/05/02 07:19:20;;;;;;;102.55;45.75;;;8.20;93.20;;;;;;5029363;28;20383;-69
2021/05/02 07:21:46;;;;;;;75.15;40.05;;;8.20;93.20;;;;;;5011989;28;20025;-70
2021/05/02 07:24:14;;;;;;;84.63;40.85;;;8.30;93.20;;;;;;5011578;28;20480;-69
2021/05/02 07:26:40;;;;;;;67.95;38.30;;;8.20;93.20;;;;;;5011761;28;20124;-69
2021/05/02 07:29:06;;;;;;;78.07;40.35;;;8.30;93.10;;;;;;5033218;28;20025;-69
2021/05/02 07:31:31;;;;;;;75.57;40.40;;;8.30;93.10;;;;;;5067167;22;20132;-65
2021/05/02 07:33:57;;;;;;;75.57;39.97;;;8.20;92.90;;;;;;5012743;28;20398;-65
2021/05/02 07:36:23;;;;;;;80.20;39.33;;;8.20;93.10;;;;;;5031100;28;20535;-65
2021/05/02 07:38:48;;;;;;;72.50;39.10;;;8.30;93.30;;;;;;5019913;28;20745;-64
2021/05/02 07:41:14;;;;;;;71.30;38.88;;;8.30;93.10;;;;;;5013640;28;20041;-69
2021/05/02 07:43:40;;;;;;;54.15;32.10;;;8.30;93.10;;;;;;5015524;28;20546;-71
2021/05/02 07:46:06;;;;;;;47.65;30.25;;;8.10;92.10;;;;;;5023437;28;20029;-68
2021/05/02 07:48:32;;;;;;;51.05;30.35;;;8.10;91.90;;;;;;5016711;28;20025;-69
2021/05/02 07:50:57;;;;;;;39.60;25.60;;;8.10;91.90;;;;;;5024713;28;20447;-69
2021/05/02 07:53:23;;;;;;;42.65;27.20;;;8.00;90.80;;;;;;4995883;28;20472;-69
2021/05/02 07:55:49;;;;;;;42.65;28.27;;;8.00;91.40;;;;;;5014469;28;20113;-70
2021/05/02 07:58:14;;;;;;;53.90;31.80;;;7.90;91.40;;;;;;5014871;28;20060;-69
2021/05/02 08:00:40;;;;;;;61.63;36.78;;;8.00;91.90;;;;;;5014902;28;20026;-69
2021/05/02 08:03:06;;;;;;;59.38;36.05;;;8.00;92.10;;;;;;5015242;28;20033;-69
2021/05/02 08:05:31;;;;;;;82.60;41.28;;;8.20;92.50;;;;;;5015076;28;20060;-69
2021/05/02 08:07:58;;;;;;;64.07;37.70;;;8.30;92.50;;;;;;5018335;28;20045;-69
2021/05/02 08:10:24;;;;;;;71.82;41.33;;;8.40;92.30;;;;;;5015409;28;20104;-69
2021/05/02 08:12:55;;;;;;;59.38;33.25;;;8.40;92.00;;;;;;5013243;28;20164;-68
2021/05/02 08:15:22;;;;;;;68.32;38.28;;;8.40;91.40;;;;;;5026089;28;20029;-69
2021/05/02 08:17:47;;;;;;;72.38;38.90;;;8.30;91.80;;;;;;5013892;28;20397;-70
2021/05/02 08:20:14;;;;;;;84.75;42.70;;;8.40;92.40;;;;;;5014495;28;20026;-71
2021/05/02 08:22:39;;;;;;;75.95;41.35;;;8.50;92.70;;;;;;4996519;28;20525;-70
2021/05/02 08:25:07;;;;;;;74.57;40.13;;;8.60;92.50;;;;;;5026333;28;20030;-74
2021/05/02 08:27:32;;;;;;;72.18;41.63;;;8.60;92.00;;;;;;5021271;28;20456;-75
2021/05/02 08:30:03;;;;;;;66.05;39.45;;;8.60;92.10;;;;;;5033941;28;20040;-73
2021/05/02 08:32:28;;;;;;;65.43;36.92;;;8.70;92.10;;;;;;5033538;28;20507;-73
2021/05/02 08:34:54;;;;;;;71.35;38.60;;;8.70;92.00;;;;;;5015782;28;20032;-74
2021/05/02 08:37:19;;;;;;;59.72;34.70;;;8.70;92.30;;;;;;5014547;28;20032;-71
2021/05/02 08:39:45;;;;;;;54.67;33.35;;;8.70;92.20;;;;;;5031429;28;20078;-72
2021/05/02 08:42:10;;;;;;;51.50;32.55;;;8.70;91.40;;;;;;5015030;28;20075;-71
2021/05/02 08:44:36;;;;;;;53.13;32.72;;;8.80;91.60;;;;;;5017623;28;20057;-72
2021/05/02 08:47:02;;;;;;;50.85;32.15;;;9.00;91.80;;;;;;5013477;28;20033;-74
2021/05/02 08:49:28;;;;;;;50.63;32.90;;;9.10;91.60;;;;;;5019773;28;20037;-69
2021/05/02 08:51:54;;;;;;;55.67;33.65;;;9.20;91.10;;;;;;5014809;28;20041;-69
2021/05/02 08:54:19;;;;;;;47.00;31.80;;;9.30;91.50;;;;;;5032963;28;20064;-71
2021/05/02 08:56:46;;;;;;;50.85;31.65;;;9.30;90.70;;;;;;5015732;28;20067;-71
2021/05/02 08:59:12;;;;;;;49.30;30.50;;;9.30;90.90;;;;;;5033291;28;20022;-70
2021/05/02 09:01:40;;;;;;;51.15;32.30;;;9.20;90.10;;;;;;5015605;28;20026;-72
2021/05/02 09:04:07;;;;;;;61.85;38.25;;;9.30;90.80;;;;;;5033086;28;20021;-71
2021/05/02 09:06:35;;;;;;;53.40;34.58;;;9.40;91.00;;;;;;5032319;28;20021;-70
2021/05/02 09:09:05;;;;;;;53.60;34.38;;;9.50;91.40;;;;;;5010987;28;20030;-70
2021/05/02 09:11:39;;;;;;;97.82;57.42;;;9.60;90.80;;;;;;5012738;28;20029;-70
2021/05/02 09:14:17;;;;;;;92.10;49.10;;;9.70;90.60;;;;;;5010663;28;20026;-70
2021/05/02 09:17:01;;;;;;;125.88;72.32;;;9.80;90.60;;;;;;5012023;28;20025;-71
2021/05/02 09:19:33;;;;;;;56.10;34.75;;;9.60;89.70;;;;;;5031785;28;20128;-69
2021/05/02 09:22:15;;;;;;;81.25;48.15;;;9.50;90.00;;;;;;5052687;28;20035;-70
2021/05/02 09:24:41;;;;;;;50.10;33.42;;;9.50;90.60;;;;;;5052297;28;20473;-69
2021/05/02 09:27:13;;;;;;;67.72;41.15;;;9.50;90.00;;;;;;5052383;28;20029;-71
2021/05/02 09:29:41;;;;;;;75.50;44.20;;;9.60;90.50;;;;;;5052678;28;20029;-69
2021/05/02 09:32:08;;;;;;;50.75;33.38;;;9.80;90.40;;;;;;5052238;28;20119;-69
2021/05/02 09:34:35;;;;;;;47.47;31.35;;;10.10;89.80;;;;;;5052315;28;20052;-70
2021/05/02 09:37:07;;;;;;;44.38;30.80;;;10.30;88.90;;;;;;5019294;28;20026;-71
2021/05/02 09:39:39;;;;;;;40.03;28.60;;;10.50;88.70;;;;;;5014682;28;20021;-71
2021/05/02 09:42:09;;;;;;;43.67;31.63;;;10.90;88.80;;;;;;5032235;28;20030;-71
2021/05/02 09:44:43;;;;;;;37.35;27.50;;;11.10;87.00;;;;;;5014347;28;20025;-70
2021/05/02 09:47:32;;;;;;;32.53;24.42;;;11.30;84.70;;;;;;5027387;28;20502;-72
2021/05/02 09:50:17;;;;;;;29.65;23.75;;;11.50;83.50;;;;;;5032263;28;20091;-71
2021/05/02 09:53:01;;;;;;;39.95;25.10;;;11.80;83.00;;;;;;5032105;28;20025;-70
2021/05/02 09:55:27;;;;;;;30.70;22.30;;;11.80;80.80;;;;;;5014468;28;20108;-70
2021/05/02 09:58:00;;;;;;;34.33;24.48;;;11.80;81.10;;;;;;5031661;28;20104;-69
2021/05/02 10:00:27;;;;;;;28.52;22.15;;;12.00;81.90;;;;;;5030914;28;20029;-69
2021/05/02 10:02:54;;;;;;;31.48;23.55;;;12.30;78.70;;;;;;5006252;28;20032;-70
2021/05/02 10:05:20;;;;;;;24.90;19.42;;;12.70;77.00;;;;;;4994339;28;20025;-70
2021/05/02 10:07:45;;;;;;;29.02;21.85;;;12.90;74.80;;;;;;5018261;28;20071;-73
2021/05/02 10:10:11;;;;;;;25.70;19.65;;;13.10;76.70;;;;;;5031979;28;20057;-72
2021/05/02 10:12:40;;;;;;;21.58;17.67;;;13.40;74.60;;;;;;5030848;28;20192;-70
2021/05/02 10:15:07;;;;;;;21.88;17.67;;;13.50;73.20;;;;;;5030810;28;20025;-73
2021/05/02 10:17:33;;;;;;;23.38;18.23;;;13.50;72.60;;;;;;5031573;28;20096;-71
2021/05/02 10:19:59;;;;;;;26.38;20.42;;;13.20;71.00;;;;;;5012056;28;20117;-72
2021/05/02 10:22:25;;;;;;;22.02;16.40;;;12.70;73.40;;;;;;5028714;28;20396;-70
2021/05/02 10:24:51;;;;;;;19.15;15.57;;;12.60;74.20;;;;;;5031378;28;20033;-72
2021/05/02 10:27:17;;;;;;;20.25;16.05;;;12.50;72.80;;;;;;5031620;28;20483;-70
2021/05/02 10:29:48;;;;;;;19.85;16.05;;;12.70;74.50;;;;;;5031697;28;20025;-70
2021/05/02 10:32:16;;;;;;;17.17;14.50;;;12.90;74.80;;;;;;5026752;28;20030;-67
2021/05/02 10:34:44;;;;;;;17.80;13.82;;;13.10;73.70;;;;;;5025386;28;20060;-67
2021/05/02 10:37:25;;;;;;;19.38;14.38;;;13.10;73.80;;;;;;5007443;28;20025;-67
2021/05/02 10:39:54;;;;;;;;;;;13.00;72.50;;;;;;5013583;28;20032;-68
2021/05/02 10:42:40;;;;;;;15.63;12.50;;;12.90;72.80;;;;;;5020913;28;20323;-69
2021/05/02 10:45:27;;;;;;;18.33;12.10;;;12.80;72.50;;;;;;5019397;28;20083;-68
2021/05/02 10:47:54;;;;;;;16.20;12.70;;;12.70;71.90;;;;;;5023073;28;20383;-67
2021/05/02 10:50:34;;;;;;;13.82;12.02;;;12.60;75.10;;;;;;5013387;28;20033;-67
2021/05/02 10:53:05;;;;;;;14.57;12.30;;;12.40;76.30;;;;;;5024676;28;20034;-67
2021/05/02 10:56:04;;;;;;;17.98;13.35;;;12.50;74.40;;;;;;5004566;28;20021;-67
2021/05/02 10:58:37;;;;;;;17.40;13.82;;;12.70;74.00;;;;;;5013528;28;20026;-67
2021/05/02 11:01:10;;;;;;;18.00;13.02;;;13.10;71.40;;;;;;5019129;28;20026;-67
2021/05/02 11:03:36;;;;;;;15.32;12.60;;;13.10;71.10;;;;;;4997203;28;20041;-67
2021/05/02 11:06:13;;;;;;;17.45;12.45;;;12.80;72.20;;;;;;5022803;28;20034;-67
2021/05/02 11:08:58;;;;;;;15.45;11.00;;;12.70;71.50;;;;;;5028116;28;20528;-66
2021/05/02 11:11:33;;;;;;;15.90;12.38;;;12.90;71.20;;;;;;5006983;28;20419;-67
2021/05/02 11:14:08;;;;;;;14.85;12.32;;;13.10;70.30;;;;;;5024587;28;20495;-67
2021/05/02 11:16:34;;;;;;;14.27;10.90;;;13.30;70.40;;;;;;5015598;28;20026;-67
2021/05/02 11:19:01;;;;;;;12.60;10.50;;;13.10;70.40;;;;;;5013802;28;20567;-67
2021/05/02 11:21:49;;;;;;;13.85;11.63;;;12.70;73.80;;;;;;5022025;28;20075;-66
2021/05/02 11:24:22;;;;;;;16.40;12.60;;;12.20;76.20;;;;;;5021718;28;20021;-66
2021/05/02 11:26:57;;;;;;;16.75;13.65;;;11.50;79.40;;;;;;5031725;28;20108;-68
2021/05/02 11:29:49;;;;;;;15.77;12.85;;;11.50;80.60;;;;;;5022720;28;20037;-67
2021/05/02 11:32:37;;;;;;;17.95;12.48;;;11.50;80.90;;;;;;5016854;28;20026;-68
2021/05/02 11:35:08;;;;;;;17.88;13.35;;;11.70;80.00;;;;;;5021924;28;20030;-68
2021/05/02 11:37:45;;;;;;;17.13;14.15;;;11.60;79.10;;;;;;5020848;28;20455;-67
2021/05/02 11:40:32;;;;;;;18.27;14.27;;;11.60;79.40;;;;;;5027702;28;20021;-67
2021/05/02 11:43:00;;;;;;;16.92;14.73;;;11.80;77.30;;;;;;5024375;28;20029;-68
2021/05/02 11:45:39;;;;;;;18.98;15.02;;;11.80;77.60;;;;;;5027665;28;20748;-67
2021/05/02 11:48:07;;;;;;;19.92;16.20;;;11.70;76.40;;;;;;5024308;28;20084;-67
2021/05/02 11:50:43;;;;;;;21.25;16.80;;;11.60;76.60;;;;;;5020396;28;20025;-66
2021/05/02 11:53:08;;;;;;;19.00;16.20;;;11.40;76.50;;;;;;5022961;28;20095;-68
2021/05/02 11:55:38;;;;;;;23.25;18.55;;;11.70;76.60;;;;;;5023079;28;20021;-67
2021/05/02 11:58:06;;;;;;;24.58;19.48;;;12.10;75.40;;;;;;5027037;28;20079;-69
2021/05/02 12:00:49;;;;;;;28.00;21.58;;;12.30;74.40;;;;;;5023236;28;20021;-68
2021/05/02 12:03:16;;;;;;;27.58;20.77;;;12.30;73.00;;;;;;5021146;28;20036;-68
2021/05/02 12:05:53;;;;;;;27.92;21.55;;;12.30;73.30;;;;;;5016531;28;20507;-70
2021/05/02 12:08:25;;;;;;;25.13;20.15;;;12.60;73.00;;;;;;5025246;28;20158;-69
2021/05/02 12:10:57;;;;;;;25.67;21.08;;;12.80;70.60;;;;;;5021898;28;20030;-74
2021/05/02 12:13:31;;;;;;;33.33;25.90;;;12.80;70.70;;;;;;5009603;28;20029;-68
2021/05/02 12:16:11;;;;;;;91.65;62.17;;;13.10;73.20;;;;;;5004121;28;20529;-70
2021/05/02 12:18:53;;;;;;;30.73;22.95;;;13.40;68.00;;;;;;5030390;28;20522;-71
2021/05/02 12:21:26;;;;;;;;;;;13.60;67.30;;;;;;5022520;28;20017;-71
2021/05/02 12:24:03;;;;;;;41.60;30.63;;;13.90;66.70;;;;;;5020943;28;19913;-71
2021/05/02 12:26:30;;;;;;;34.38;26.02;;;13.70;65.40;;;;;;5024906;28;20060;-71
2021/05/02 12:28:58;;;;;;;34.33;25.20;;;13.30;65.30;;;;;;4999507;28;20064;-71
2021/05/02 12:31:24;;;;;;;31.42;23.40;;;13.10;66.20;;;;;;5009137;28;20030;-71
2021/05/02 12:33:53;;;;;;;30.23;24.05;;;13.00;65.50;;;;;;5023554;28;20032;-70
2021/05/02 12:36:19;;;;;;;30.02;24.02;;;12.70;66.80;;;;;;5027667;28;20029;-70
2021/05/02 12:38:44;;;;;;;36.58;27.92;;;12.30;68.50;;;;;;5014960;28;20506;-70
2021/05/02 12:41:20;;;;;;;30.23;24.77;;;12.00;70.40;;;;;;5006500;28;20028;-71
2021/05/02 12:43:50;;;;;;;28.20;22.67;;;11.50;70.80;;;;;;5027157;28;20503;-71